Time;durP1;ratioP1;P1;durP2;ratioP2;P2;SDS_P1;SDS_P2;PMS_P1;PMS_P2;Temp;Humidity;BMP_temperature;BMP_pressure;BME280_temperature;BME280_humidity;BME280_pressure;Samples;Min_cycle;Max_cycle;Signal;HPM_P1;HPM_P2
2022/03/03 00:02:20;;;;;;;7.93;6.10;;;3.30;99.90;;;;;;4986613;28;21075;-69
2022/03/03 00:04:46;;;;;;;8.80;6.47;;;3.40;99.90;;;;;;4979984;28;20465;-70
2022/03/03 00:07:14;;;;;;;14.93;5.70;;;3.40;99.90;;;;;;4993151;28;20536;-69
2022/03/03 00:09:40;;;;;;;9.43;5.70;;;3.40;99.90;;;;;;4988593;28;20468;-69
2022/03/03 00:12:09;;;;;;;9.00;6.67;;;3.30;99.90;;;;;;4991477;28;20549;-69
2022/03/03 00:14:39;;;;;;;7.47;5.53;;;3.30;99.90;;;;;;4982870;28;20461;-69
2022/03/03 00:17:06;;;;;;;8.50;6.07;;;3.20;99.90;;;;;;4986613;28;20846;-70
2022/03/03 00:19:32;;;;;;;9.87;6.83;;;3.20;99.90;;;;;;4984388;28;20462;-69
2022/03/03 00:21:59;;;;;;;9.70;6.27;;;3.30;99.90;;;;;;4988195;28;21012;-69
2022/03/03 00:24:26;;;;;;;10.23;5.10;;;3.20;99.90;;;;;;4989068;28;20435;-70
2022/03/03 00:26:53;;;;;;;7.60;5.63;;;3.00;99.90;;;;;;4990090;28;20630;-69
2022/03/03 00:29:21;;;;;;;11.17;6.27;;;2.90;99.90;;;;;;4983745;28;20440;-69
2022/03/03 00:31:48;;;;;;;8.73;5.57;;;2.80;99.90;;;;;;4979709;28;20659;-69
2022/03/03 00:34:14;;;;;;;7.13;5.37;;;3.00;99.90;;;;;;4989961;28;20466;-70
2022/03/03 00:36:42;;;;;;;11.07;4.43;;;3.00;99.90;;;;;;4981115;28;20467;-70
2022/03/03 00:39:08;;;;;;;7.77;6.30;;;3.00;99.90;;;;;;4989548;28;20509;-70
2022/03/03 00:41:38;;;;;;;13.30;7.40;;;3.00;99.90;;;;;;4988266;28;20948;-70
2022/03/03 00:44:06;;;;;;;9.73;6.73;;;2.90;99.90;;;;;;4984603;28;20704;-70
2022/03/03 00:46:34;;;;;;;9.53;5.07;;;3.00;99.90;;;;;;4987049;28;20457;-70
2022/03/03 00:49:01;;;;;;;7.30;4.93;;;2.90;99.90;;;;;;4982936;28;20822;-70
2022/03/03 00:51:27;;;;;;;9.60;6.70;;;2.90;99.90;;;;;;4985795;28;20584;-70
2022/03/03 00:53:54;;;;;;;14.63;7.07;;;3.00;99.90;;;;;;4983106;28;20428;-70
2022/03/03 00:56:21;;;;;;;6.40;4.60;;;2.80;99.90;;;;;;4988818;28;21030;-70
2022/03/03 00:58:48;;;;;;;12.73;6.07;;;2.80;99.90;;;;;;4989959;28;20511;-69
2022/03/03 01:01:15;;;;;;;6.27;5.30;;;2.60;99.90;;;;;;4982785;28;20458;-69
2022/03/03 01:03:43;;;;;;;9.23;5.80;;;2.40;99.90;;;;;;4991804;28;20559;-69
2022/03/03 01:06:11;;;;;;;9.57;6.47;;;2.70;99.90;;;;;;4988662;28;20498;-69
2022/03/03 01:08:38;;;;;;;11.73;5.37;;;2.80;99.90;;;;;;4989461;28;20516;-69
2022/03/03 01:11:05;;;;;;;7.87;5.73;;;2.90;99.90;;;;;;4984329;28;20540;-70
2022/03/03 01:13:32;;;;;;;9.17;5.97;;;3.00;99.90;;;;;;4993859;28;20915;-69
2022/03/03 01:15:59;;;;;;;9.37;4.90;;;2.90;99.90;;;;;;4989633;28;20550;-69
2022/03/03 01:18:25;;;;;;;11.70;5.40;;;2.80;99.90;;;;;;4987100;28;20432;-70
2022/03/03 01:20:54;;;;;;;7.20;4.23;;;2.70;99.90;;;;;;4989139;28;20444;-69
2022/03/03 01:23:21;;;;;;;8.23;5.00;;;2.60;99.90;;;;;;4992169;28;20548;-69
2022/03/03 01:25:48;;;;;;;9.10;5.83;;;2.60;99.90;;;;;;4989608;28;20600;-69
2022/03/03 01:28:15;;;;;;;10.83;6.97;;;2.60;99.90;;;;;;4988390;28;20973;-69
2022/03/03 01:30:41;;;;;;;11.87;7.00;;;2.60;99.90;;;;;;4985407;28;20850;-69
2022/03/03 01:33:08;;;;;;;11.90;9.30;;;2.70;99.90;;;;;;4986776;28;20499;-69
2022/03/03 01:35:35;;;;;;;7.53;6.17;;;2.80;99.90;;;;;;4991247;28;20540;-69
2022/03/03 01:38:03;;;;;;;7.50;5.90;;;2.80;99.90;;;;;;4995024;28;21026;-70
2022/03/03 01:40:30;;;;;;;9.73;6.30;;;2.80;99.90;;;;;;4990666;28;20465;-69
2022/03/03 01:42:57;;;;;;;8.80;6.50;;;2.80;99.90;;;;;;4990196;28;20458;-69
2022/03/03 01:45:24;;;;;;;22.07;8.70;;;2.70;99.90;;;;;;4986680;28;20474;-69
2022/03/03 01:47:51;;;;;;;14.43;5.07;;;2.60;99.90;;;;;;4985230;28;20485;-69
2022/03/03 01:50:17;;;;;;;10.53;5.60;;;2.40;99.90;;;;;;4989844;28;20953;-69
2022/03/03 01:52:44;;;;;;;8.50;5.63;;;2.40;99.90;;;;;;4987396;28;20541;-69
2022/03/03 01:55:12;;;;;;;8.90;5.23;;;2.30;99.90;;;;;;4991500;28;20557;-69
2022/03/03 01:57:39;;;;;;;9.53;6.30;;;2.20;99.90;;;;;;4989685;28;20490;-69
2022/03/03 02:00:08;;;;;;;14.67;6.97;;;2.20;99.90;;;;;;4987531;28;20469;-70
2022/03/03 02:02:35;;;;;;;21.33;7.10;;;2.20;99.90;;;;;;4990481;28;20435;-70
2022/03/03 02:05:01;;;;;;;7.83;6.30;;;2.00;99.90;;;;;;4991434;28;20557;-70
2022/03/03 02:07:28;;;;;;;9.83;6.63;;;2.00;99.90;;;;;;4991524;28;20531;-70
2022/03/03 02:09:55;;;;;;;10.60;4.10;;;2.10;99.90;;;;;;4988288;28;20464;-70
2022/03/03 02:12:22;;;;;;;13.13;5.50;;;2.20;99.90;;;;;;4988337;28;20511;-69
2022/03/03 02:14:50;;;;;;;9.57;6.30;;;2.30;99.90;;;;;;4991614;28;20460;-70
2022/03/03 02:17:18;;;;;;;11.10;6.60;;;2.40;99.90;;;;;;4985965;28;20497;-69
2022/03/03 02:19:45;;;;;;;6.50;4.60;;;2.30;99.90;;;;;;4994291;28;21426;-70
2022/03/03 02:22:13;;;;;;;8.00;6.27;;;2.30;99.90;;;;;;4988066;28;20428;-70
2022/03/03 02:24:40;;;;;;;7.77;4.90;;;2.30;99.90;;;;;;4985334;28;20978;-70
2022/03/03 02:27:08;;;;;;;14.33;6.37;;;2.20;99.90;;;;;;4984627;28;20486;-69
2022/03/03 02:29:36;;;;;;;10.37;6.23;;;2.20;99.90;;;;;;4981447;28;20457;-70
2022/03/03 02:32:04;;;;;;;15.33;6.67;;;2.20;99.90;;;;;;4984235;28;20468;-70
2022/03/03 02:34:31;;;;;;;16.27;5.60;;;2.10;99.90;;;;;;4985467;28;20522;-70
2022/03/03 02:36:58;;;;;;;13.20;5.20;;;2.30;99.90;;;;;;4985780;28;20488;-69
2022/03/03 02:39:26;;;;;;;11.00;5.73;;;2.30;99.90;;;;;;4990436;28;20609;-70
2022/03/03 02:41:53;;;;;;;7.30;5.00;;;2.30;99.90;;;;;;4989434;28;20472;-69
2022/03/03 02:44:19;;;;;;;4.83;4.13;;;2.30;99.90;;;;;;4989234;28;20461;-69
2022/03/03 02:46:46;;;;;;;7.07;5.53;;;2.30;99.90;;;;;;4989386;28;22162;-70
2022/03/03 02:49:13;;;;;;;9.67;6.00;;;2.30;99.90;;;;;;4989971;28;20539;-69
2022/03/03 02:51:42;;;;;;;9.50;5.57;;;2.30;99.90;;;;;;4986613;28;20480;-69
2022/03/03 02:54:09;;;;;;;20.23;5.33;;;2.10;99.90;;;;;;4989193;28;20607;-69
2022/03/03 02:59:20;;;;;;;9.90;7.53;;;2.00;99.90;;;;;;4982824;28;20556;-69
2022/03/03 03:01:49;;;;;;;8.90;6.70;;;2.00;99.90;;;;;;4988072;28;20453;-69
2022/03/03 03:04:16;;;;;;;7.20;5.37;;;2.10;99.90;;;;;;4985884;28;20953;-69
2022/03/03 03:06:43;;;;;;;10.33;5.60;;;2.00;99.90;;;;;;4987037;28;20453;-69
2022/03/03 03:09:09;;;;;;;7.43;5.67;;;2.00;99.90;;;;;;4993260;28;20616;-69
2022/03/03 03:11:37;;;;;;;9.07;5.73;;;1.90;99.90;;;;;;4992515;28;20896;-69
2022/03/03 03:14:04;;;;;;;6.27;5.67;;;2.00;99.90;;;;;;4994320;28;20470;-69
2022/03/03 03:16:33;;;;;;;7.20;5.60;;;2.00;99.90;;;;;;4995724;28;20544;-69
2022/03/03 03:19:00;;;;;;;11.87;5.90;;;1.80;99.90;;;;;;4993605;28;20524;-69
2022/03/03 03:21:27;;;;;;;16.03;7.40;;;1.90;99.90;;;;;;4989316;28;20550;-69
2022/03/03 03:23:53;;;;;;;13.30;5.80;;;1.90;99.90;;;;;;4993468;28;20845;-69
2022/03/03 03:26:20;;;;;;;12.30;5.80;;;1.80;99.90;;;;;;4994575;28;20918;-69
2022/03/03 03:28:48;;;;;;;7.23;5.10;;;1.80;99.90;;;;;;4992688;28;20937;-69
2022/03/03 03:31:14;;;;;;;11.80;6.60;;;1.80;99.90;;;;;;4994201;28;20536;-69
2022/03/03 03:33:41;;;;;;;11.33;6.60;;;1.70;99.90;;;;;;4990580;28;20486;-69
2022/03/03 03:36:08;;;;;;;9.87;7.00;;;1.60;99.90;;;;;;4988048;28;20831;-69
2022/03/03 03:38:34;;;;;;;11.40;8.00;;;1.70;99.90;;;;;;4989941;28;20810;-69
2022/03/03 03:41:01;;;;;;;8.93;5.03;;;1.70;99.90;;;;;;4986152;28;20774;-69
2022/03/03 03:43:28;;;;;;;10.30;6.70;;;1.80;99.90;;;;;;4993462;28;20942;-69
2022/03/03 03:45:56;;;;;;;15.87;5.80;;;1.80;99.90;;;;;;4983136;28;20482;-68
2022/03/03 03:48:23;;;;;;;11.77;6.43;;;1.60;99.90;;;;;;4988108;28;20488;-68
2022/03/03 03:50:50;;;;;;;9.93;7.37;;;1.60;99.90;;;;;;4985951;28;21060;-68
2022/03/03 03:53:17;;;;;;;8.53;4.70;;;1.70;99.90;;;;;;4980569;28;20522;-68
2022/03/03 03:55:44;;;;;;;12.27;5.77;;;1.80;99.90;;;;;;4982779;28;20529;-69
2022/03/03 03:58:11;;;;;;;9.53;5.77;;;1.80;99.90;;;;;;4982777;28;20986;-69
2022/03/03 04:00:38;;;;;;;11.13;6.77;;;1.80;99.90;;;;;;4980232;28;22217;-69
2022/03/03 04:03:06;;;;;;;12.13;5.07;;;1.90;99.90;;;;;;4988814;28;20568;-70
2022/03/03 04:05:36;;;;;;;12.37;5.43;;;1.90;99.90;;;;;;4984581;28;21033;-69
2022/03/03 04:08:03;;;;;;;10.20;5.63;;;1.80;99.90;;;;;;4982673;28;20462;-70
2022/03/03 04:10:30;;;;;;;6.50;5.43;;;1.70;99.90;;;;;;4984312;28;20512;-69
2022/03/03 04:12:58;;;;;;;19.53;7.47;;;1.60;99.90;;;;;;4985591;28;20462;-69
2022/03/03 04:15:25;;;;;;;10.17;6.47;;;1.50;99.90;;;;;;4987977;28;20509;-69
2022/03/03 04:17:52;;;;;;;8.33;5.50;;;1.30;99.90;;;;;;4987702;28;21009;-69
2022/03/03 04:20:22;;;;;;;9.90;5.27;;;1.30;99.90;;;;;;4986967;28;20923;-70
2022/03/03 04:22:48;;;;;;;8.77;5.00;;;1.30;99.90;;;;;;4983066;28;20521;-70
2022/03/03 04:25:15;;;;;;;8.63;5.80;;;1.30;99.90;;;;;;4987698;28;20860;-71
2022/03/03 04:27:42;;;;;;;24.53;8.30;;;1.30;99.90;;;;;;4983129;28;20589;-70
2022/03/03 04:30:10;;;;;;;15.50;5.53;;;1.50;99.90;;;;;;4983000;28;20522;-70
2022/03/03 04:32:37;;;;;;;13.17;6.83;;;1.50;99.90;;;;;;4985827;28;20436;-69
2022/03/03 04:35:04;;;;;;;7.83;5.10;;;1.50;99.90;;;;;;4986881;28;20508;-70
2022/03/03 04:37:32;;;;;;;12.53;7.87;;;1.50;99.90;;;;;;4984260;28;20505;-70
2022/03/03 04:39:59;;;;;;;12.40;5.87;;;1.50;99.90;;;;;;4981570;28;21127;-70
2022/03/03 04:42:26;;;;;;;7.43;6.20;;;1.50;99.90;;;;;;4981175;28;20505;-70
2022/03/03 04:44:52;;;;;;;12.07;6.60;;;1.70;99.90;;;;;;4983856;28;20478;-70
2022/03/03 04:47:19;;;;;;;10.03;5.70;;;1.60;99.90;;;;;;4983658;28;20493;-69
2022/03/03 04:49:46;;;;;;;10.07;4.97;;;1.60;99.90;;;;;;4982937;28;20555;-69
2022/03/03 04:52:12;;;;;;;14.80;5.27;;;1.60;99.90;;;;;;4989798;28;20563;-69
2022/03/03 04:54:40;;;;;;;9.93;5.40;;;1.60;99.90;;;;;;4961605;28;20875;-70
2022/03/03 04:57:07;;;;;;;8.43;5.50;;;1.60;99.90;;;;;;4981321;28;20511;-70
2022/03/03 04:59:34;;;;;;;9.97;7.23;;;1.50;99.90;;;;;;4977144;28;20440;-70
2022/03/03 05:02:01;;;;;;;11.60;7.20;;;1.40;99.90;;;;;;4982656;28;20438;-69
2022/03/03 05:04:27;;;;;;;7.07;5.20;;;1.50;99.90;;;;;;4992201;28;20523;-69
2022/03/03 05:06:54;;;;;;;14.07;6.30;;;1.50;99.90;;;;;;4985378;28;20532;-70
2022/03/03 05:09:21;;;;;;;7.30;5.33;;;1.50;99.90;;;;;;4989265;28;20458;-70
2022/03/03 05:11:49;;;;;;;10.73;5.43;;;1.60;99.90;;;;;;4990070;28;20521;-69
2022/03/03 05:14:15;;;;;;;13.83;6.60;;;1.50;99.90;;;;;;4981961;28;21738;-69
2022/03/03 05:16:42;;;;;;;12.70;9.20;;;1.60;99.90;;;;;;4986372;28;21317;-69
2022/03/03 05:19:09;;;;;;;8.67;5.23;;;1.70;99.90;;;;;;4984967;28;21160;-69
2022/03/03 05:21:35;;;;;;;12.97;6.57;;;1.50;99.90;;;;;;4985833;28;20474;-69
2022/03/03 05:24:02;;;;;;;9.57;4.83;;;1.50;99.90;;;;;;4978254;28;20452;-69
2022/03/03 05:26:29;;;;;;;7.30;4.87;;;1.40;99.90;;;;;;4983054;28;20904;-69
2022/03/03 05:28:57;;;;;;;14.73;5.33;;;1.30;99.90;;;;;;4977919;28;22015;-69
2022/03/03 05:31:24;;;;;;;20.70;8.43;;;1.30;99.90;;;;;;4982829;28;21152;-70
2022/03/03 05:33:50;;;;;;;7.23;5.90;;;1.40;99.90;;;;;;4994051;28;20880;-70
2022/03/03 05:36:18;;;;;;;10.00;5.17;;;1.40;99.90;;;;;;4993229;28;20465;-71
2022/03/03 05:38:44;;;;;;;5.07;4.47;;;1.20;99.90;;;;;;4987326;28;20436;-71
2022/03/03 05:41:11;;;;;;;5.13;4.20;;;1.20;99.90;;;;;;4986544;28;20477;-71
2022/03/03 05:43:38;;;;;;;11.70;6.53;;;1.20;99.90;;;;;;4990015;28;20458;-71
2022/03/03 05:46:06;;;;;;;14.13;7.60;;;1.10;99.90;;;;;;4995132;28;20546;-71
2022/03/03 05:48:34;;;;;;;9.10;5.10;;;1.20;99.90;;;;;;4995801;28;20966;-71
2022/03/03 05:51:01;;;;;;;10.23;5.73;;;1.20;99.90;;;;;;4998821;28;20988;-71
2022/03/03 05:53:28;;;;;;;6.53;5.10;;;1.20;99.90;;;;;;4996580;28;20436;-70
2022/03/03 05:55:56;;;;;;;10.10;6.47;;;1.30;99.90;;;;;;4996460;28;20478;-70
2022/03/03 05:58:26;;;;;;;15.63;7.97;;;1.10;99.90;;;;;;4995187;28;20445;-70
2022/03/03 06:00:55;;;;;;;8.53;5.40;;;1.20;99.90;;;;;;4994767;28;20931;-70
2022/03/03 06:03:25;;;;;;;13.43;6.80;;;1.20;99.90;;;;;;4996096;28;20471;-70
2022/03/03 06:05:53;;;;;;;10.00;6.37;;;1.30;99.90;;;;;;4991614;28;21017;-70
2022/03/03 06:08:26;;;;;;;13.30;7.00;;;1.40;99.90;;;;;;4995146;28;20449;-70
2022/03/03 06:10:53;;;;;;;10.53;6.13;;;1.60;99.90;;;;;;4997799;28;20448;-70
2022/03/03 06:13:23;;;;;;;10.10;6.57;;;1.60;99.90;;;;;;4999838;28;20469;-70
2022/03/03 06:15:51;;;;;;;6.70;5.40;;;1.50;99.90;;;;;;4995117;28;20901;-70
2022/03/03 06:18:21;;;;;;;8.90;6.53;;;1.40;99.90;;;;;;4995826;28;20458;-70
2022/03/03 06:20:51;;;;;;;8.83;4.93;;;1.50;99.90;;;;;;4996570;28;20464;-71
2022/03/03 06:23:18;;;;;;;10.13;5.70;;;1.50;99.90;;;;;;4998818;28;21045;-70
2022/03/03 06:25:45;;;;;;;14.80;6.70;;;1.30;99.90;;;;;;4993100;28;20545;-69
2022/03/03 06:28:12;;;;;;;9.93;5.70;;;1.30;99.90;;;;;;4998073;28;20469;-71
2022/03/03 06:30:38;;;;;;;15.03;6.83;;;1.20;99.90;;;;;;5002025;28;20891;-70
2022/03/03 06:33:05;;;;;;;16.80;8.30;;;1.10;99.90;;;;;;5000817;28;20465;-70
2022/03/03 06:35:35;;;;;;;7.47;4.90;;;1.20;99.90;;;;;;4994216;28;20647;-70
2022/03/03 06:38:05;;;;;;;15.97;7.43;;;1.60;99.90;;;;;;4996918;28;20818;-70
2022/03/03 06:40:32;;;;;;;7.47;6.00;;;2.00;99.90;;;;;;4997785;28;20451;-70
2022/03/03 06:43:00;;;;;;;15.70;7.67;;;2.20;99.90;;;;;;4999525;28;20607;-70
2022/03/03 06:45:28;;;;;;;16.30;8.00;;;2.40;99.90;;;;;;4995466;28;20465;-69
2022/03/03 06:47:55;;;;;;;8.93;6.13;;;2.50;99.90;;;;;;5001985;28;20451;-70
2022/03/03 06:50:22;;;;;;;15.53;6.53;;;2.80;99.90;;;;;;4997763;28;20470;-69
2022/03/03 06:52:50;;;;;;;17.47;7.13;;;2.70;99.90;;;;;;5001980;28;20458;-69
2022/03/03 06:55:20;;;;;;;8.17;6.50;;;2.60;99.90;;;;;;4993982;28;20462;-70
2022/03/03 06:57:50;;;;;;;13.67;6.90;;;2.70;99.90;;;;;;4993122;28;20536;-70
2022/03/03 07:00:19;;;;;;;10.30;6.90;;;2.70;99.90;;;;;;4995341;28;20440;-70
2022/03/03 07:02:47;;;;;;;9.67;6.57;;;2.70;99.90;;;;;;4997697;28;20463;-70
2022/03/03 07:05:14;;;;;;;12.20;7.90;;;2.80;99.90;;;;;;4994904;28;20881;-70
2022/03/03 07:07:43;;;;;;;12.53;6.80;;;2.80;99.90;;;;;;4996125;28;20467;-70
2022/03/03 07:10:10;;;;;;;13.07;7.43;;;3.00;99.90;;;;;;4995712;28;20441;-70
2022/03/03 07:12:39;;;;;;;12.83;6.67;;;3.00;99.90;;;;;;5002039;28;20515;-70
2022/03/03 07:15:07;;;;;;;6.93;4.90;;;2.80;99.90;;;;;;4996550;28;20515;-70
2022/03/03 07:17:44;;;;;;;11.17;7.70;;;2.80;99.90;;;;;;5002498;28;20489;-69
2022/03/03 07:20:17;;;;;;;10.43;4.47;;;2.70;99.90;;;;;;4991001;28;20959;-69
2022/03/03 07:22:56;;;;;;;9.17;5.70;;;2.80;99.90;;;;;;4994436;28;20454;-69
2022/03/03 07:25:28;;;;;;;6.10;5.50;;;2.50;99.90;;;;;;4996506;28;20987;-69
2022/03/03 07:28:01;;;;;;;13.63;6.37;;;2.50;99.90;;;;;;4998779;28;20485;-69
2022/03/03 07:30:29;;;;;;;23.20;7.67;;;2.50;99.90;;;;;;4995405;28;20485;-69
2022/03/03 07:32:59;;;;;;;9.27;6.67;;;2.50;99.90;;;;;;4999032;28;20469;-70
2022/03/03 07:35:26;;;;;;;17.30;7.30;;;2.70;99.90;;;;;;4996399;28;20437;-69
2022/03/03 07:37:55;;;;;;;9.80;6.83;;;2.80;99.90;;;;;;4995441;28;20461;-69
2022/03/03 07:40:22;;;;;;;9.63;8.70;;;3.00;99.90;;;;;;4998785;28;20611;-69
2022/03/03 07:42:49;;;;;;;15.50;7.23;;;3.00;99.90;;;;;;4994962;28;20805;-69
2022/03/03 07:45:17;;;;;;;26.70;10.37;;;3.20;99.90;;;;;;4998160;28;21064;-69
2022/03/03 07:47:44;;;;;;;8.43;6.83;;;3.40;99.90;;;;;;4994687;28;20453;-69
2022/03/03 07:50:10;;;;;;;13.93;7.23;;;3.50;99.90;;;;;;4993118;28;20440;-69
2022/03/03 07:52:37;;;;;;;6.50;5.07;;;3.40;99.90;;;;;;4992707;28;20472;-69
2022/03/03 07:55:04;;;;;;;12.23;6.77;;;3.80;99.90;;;;;;4995893;28;20581;-69
2022/03/03 07:57:38;;;;;;;15.37;6.83;;;4.00;99.90;;;;;;4992064;28;21026;-69
2022/03/03 08:00:07;;;;;;;9.47;5.13;;;4.50;99.90;;;;;;4998849;28;20535;-69
2022/03/03 08:02:36;;;;;;;16.10;6.60;;;5.10;99.90;;;;;;4995850;28;20890;-70
2022/03/03 08:05:05;;;;;;;9.30;5.00;;;5.20;99.90;;;;;;4996140;28;20490;-69
2022/03/03 08:07:35;;;;;;;16.10;5.67;;;5.20;99.90;;;;;;4997137;28;20458;-69
2022/03/03 08:10:03;;;;;;;5.50;5.00;;;5.50;99.90;;;;;;4993518;28;20440;-69
2022/03/03 08:12:32;;;;;;;12.37;6.30;;;5.70;99.90;;;;;;4998586;28;20928;-69
2022/03/03 08:15:00;;;;;;;24.10;7.37;;;5.60;99.90;;;;;;4990551;28;20429;-69
2022/03/03 08:17:27;;;;;;;9.30;6.33;;;5.60;99.90;;;;;;4998590;28;20518;-70
2022/03/03 08:19:56;;;;;;;12.13;5.87;;;6.00;99.90;;;;;;4992737;28;20444;-69
2022/03/03 08:22:25;;;;;;;8.10;5.47;;;6.10;99.90;;;;;;4992197;28;20945;-69
2022/03/03 08:24:55;;;;;;;7.97;5.67;;;6.20;99.90;;;;;;4991493;28;20507;-69
2022/03/03 08:27:22;;;;;;;8.60;5.70;;;6.30;99.90;;;;;;5000052;28;20670;-68
2022/03/03 08:29:50;;;;;;;4.63;4.17;;;6.50;99.90;;;;;;4996127;28;20910;-68
2022/03/03 08:32:19;;;;;;;20.10;7.13;;;6.50;99.90;;;;;;4995259;28;20523;-68
2022/03/03 08:34:56;;;;;;;12.57;4.87;;;6.60;99.90;;;;;;4995869;28;20525;-68
2022/03/03 08:37:30;;;;;;;11.30;5.80;;;6.70;99.90;;;;;;4994141;28;20798;-68
2022/03/03 08:40:00;;;;;;;15.13;5.63;;;7.30;99.90;;;;;;4997460;28;20504;-68
2022/03/03 08:42:30;;;;;;;6.07;4.47;;;7.60;99.90;;;;;;4997141;28;20440;-68
2022/03/03 08:45:02;;;;;;;6.73;6.03;;;8.30;99.90;;;;;;4990844;28;20933;-68
2022/03/03 08:47:30;;;;;;;8.57;4.80;;;8.90;99.90;;;;;;4995203;28;20512;-68
2022/03/03 08:49:59;;;;;;;16.03;5.77;;;9.50;99.90;;;;;;5000809;28;20469;-68
2022/03/03 08:52:28;;;;;;;9.00;5.30;;;10.40;99.10;;;;;;5001049;28;20433;-68
2022/03/03 08:54:55;;;;;;;9.50;7.13;;;11.00;95.50;;;;;;4995287;28;20543;-67
2022/03/03 08:57:22;;;;;;;8.03;5.67;;;11.00;94.20;;;;;;4997980;28;20474;-67
2022/03/03 08:59:48;;;;;;;9.20;4.77;;;12.00;92.60;;;;;;5003533;28;21073;-68
2022/03/03 09:02:17;;;;;;;7.50;6.70;;;12.40;88.90;;;;;;4993762;28;20465;-69
2022/03/03 09:04:45;;;;;;;7.90;6.03;;;12.00;84.10;;;;;;4994944;28;20492;-68
2022/03/03 09:07:12;;;;;;;4.13;3.77;;;11.70;84.40;;;;;;4994252;28;20464;-68
2022/03/03 09:09:40;;;;;;;8.47;4.00;;;11.90;81.10;;;;;;4998535;28;20465;-68
2022/03/03 09:12:08;;;;;;;7.83;5.13;;;11.60;81.50;;;;;;4995630;28;20465;-69
2022/03/03 09:14:35;;;;;;;12.73;6.37;;;11.80;79.80;;;;;;4995489;28;20464;-69
2022/03/03 09:17:02;;;;;;;8.80;5.60;;;12.20;78.70;;;;;;4993093;28;20493;-68
2022/03/03 09:19:28;;;;;;;8.80;5.93;;;12.50;75.40;;;;;;4997791;28;20500;-69
2022/03/03 09:21:55;;;;;;;11.60;6.30;;;12.50;73.50;;;;;;4994842;28;20470;-69
2022/03/03 09:24:23;;;;;;;13.97;7.07;;;13.80;73.10;;;;;;4992086;28;20481;-69
2022/03/03 09:26:51;;;;;;;12.97;6.37;;;15.00;68.50;;;;;;4998682;28;20474;-69
2022/03/03 09:29:19;;;;;;;10.50;7.60;;;15.70;64.20;;;;;;4991278;28;20450;-69
2022/03/03 09:31:46;;;;;;;11.73;7.50;;;16.50;63.00;;;;;;4994056;28;20982;-69
2022/03/03 09:34:13;;;;;;;11.53;7.77;;;17.40;59.70;;;;;;4988472;28;20542;-67
2022/03/03 09:36:40;;;;;;;13.57;7.80;;;18.30;57.00;;;;;;4993012;28;21053;-69
2022/03/03 09:39:06;;;;;;;10.10;6.97;;;18.60;52.60;;;;;;4999047;28;20465;-69
2022/03/03 09:41:33;;;;;;;11.57;8.80;;;19.00;51.40;;;;;;4995362;28;20438;-69
2022/03/03 09:44:01;;;;;;;12.33;7.10;;;18.80;50.90;;;;;;4992242;28;20477;-69
2022/03/03 09:46:28;;;;;;;13.00;7.87;;;18.70;48.20;;;;;;4992441;28;20469;-69
2022/03/03 09:48:54;;;;;;;10.60;6.80;;;18.60;48.80;;;;;;4994033;28;20874;-69
2022/03/03 09:51:21;;;;;;;10.20;6.63;;;18.30;47.60;;;;;;4993206;28;20874;-68
2022/03/03 09:53:49;;;;;;;9.70;7.27;;;17.40;49.00;;;;;;4994019;28;20442;-69
2022/03/03 09:56:16;;;;;;;13.43;8.40;;;17.40;50.30;;;;;;4989792;28;20477;-70
2022/03/03 09:58:43;;;;;;;10.50;7.60;;;18.40;49.30;;;;;;4990553;28;20457;-70
2022/03/03 10:01:11;;;;;;;8.27;6.43;;;18.40;47.10;;;;;;4997134;28;20450;-70
2022/03/03 10:03:38;;;;;;;10.50;8.30;;;17.90;47.60;;;;;;4996737;28;20488;-68
2022/03/03 10:06:05;;;;;;;14.00;8.83;;;18.80;48.30;;;;;;4991471;28;21510;-69
2022/03/03 10:08:32;;;;;;;13.90;9.27;;;19.20;47.30;;;;;;4991798;28;20557;-68
2022/03/03 10:11:01;;;;;;;12.27;8.23;;;19.20;48.90;;;;;;4998371;28;21189;-69
2022/03/03 10:13:43;;;;;;;12.60;8.70;;;18.40;47.60;;;;;;4994462;28;20493;-69
2022/03/03 10:16:11;;;;;;;13.30;8.90;;;19.10;47.60;;;;;;5001557;28;20512;-67
2022/03/03 10:18:38;;;;;;;13.73;8.80;;;18.90;46.70;;;;;;5000908;28;20934;-68
2022/03/03 10:21:05;;;;;;;13.07;8.23;;;19.30;46.10;;;;;;4995601;28;20559;-69
2022/03/03 10:23:35;;;;;;;13.73;8.93;;;19.20;45.70;;;;;;5001304;28;20821;-68
2022/03/03 10:26:04;;;;;;;14.73;8.57;;;19.70;45.20;;;;;;4999418;28;20553;-68
2022/03/03 10:28:32;;;;;;;8.87;7.73;;;19.30;44.10;;;;;;5000257;28;20466;-68
2022/03/03 10:31:01;;;;;;;12.63;8.60;;;19.10;45.30;;;;;;4999341;28;20450;-68
2022/03/03 10:33:30;;;;;;;15.40;8.33;;;19.20;45.00;;;;;;4994384;28;20454;-69
2022/03/03 10:36:03;;;;;;;13.87;11.73;;;19.70;44.70;;;;;;5002560;28;20495;-68
2022/03/03 10:38:30;;;;;;;16.83;6.70;;;19.50;44.20;;;;;;4995498;28;20465;-69
2022/03/03 10:40:57;;;;;;;9.67;8.27;;;20.20;44.00;;;;;;4996692;28;20443;-68
2022/03/03 10:43:24;;;;;;;11.07;8.13;;;20.60;44.00;;;;;;5000054;28;20544;-67
2022/03/03 10:45:56;;;;;;;10.83;7.50;;;20.20;43.50;;;;;;4993134;28;20561;-69
2022/03/03 10:48:24;;;;;;;11.50;8.27;;;20.20;43.00;;;;;;4999904;28;20446;-68
2022/03/03 10:50:55;;;;;;;11.43;7.30;;;20.30;42.60;;;;;;4996948;28;20813;-68
2022/03/03 10:53:23;;;;;;;8.53;7.60;;;20.90;42.70;;;;;;4996154;28;20453;-68
2022/03/03 10:56:00;;;;;;;11.27;7.80;;;20.30;43.10;;;;;;4997236;28;20462;-68
2022/03/03 10:58:50;;;;;;;11.53;9.63;;;20.80;43.30;;;;;;4996447;28;20477;-69
2022/03/03 11:01:19;;;;;;;7.70;6.47;;;21.10;42.80;;;;;;4992535;28;20446;-68
2022/03/03 11:03:49;;;;;;;8.60;7.60;;;22.00;41.50;;;;;;5000591;28;20534;-69
2022/03/03 11:06:19;;;;;;;11.17;9.03;;;21.60;40.60;;;;;;4994824;28;20465;-69
2022/03/03 11:08:47;;;;;;;8.50;6.93;;;22.10;41.10;;;;;;4997483;28;20445;-69
2022/03/03 11:11:14;;;;;;;10.17;7.43;;;21.90;40.80;;;;;;4997604;28;21490;-69
2022/03/03 11:13:41;;;;;;;8.83;7.03;;;21.00;40.00;;;;;;4995520;28;20529;-68
2022/03/03 11:16:08;;;;;;;11.90;7.77;;;21.10;38.60;;;;;;4992389;28;20893;-68
2022/03/03 11:18:35;;;;;;;9.60;7.20;;;20.80;39.40;;;;;;4996370;28;20516;-68
2022/03/03 11:21:03;;;;;;;8.03;6.50;;;21.10;39.20;;;;;;4993511;28;20458;-69
2022/03/03 11:23:40;;;;;;;16.53;6.93;;;21.40;39.10;;;;;;4994596;28;20489;-68
2022/03/03 11:26:08;;;;;;;11.47;7.20;;;20.80;37.60;;;;;;4997345;28;20509;-69
2022/03/03 11:28:36;;;;;;;11.40;7.67;;;21.00;38.00;;;;;;4993573;28;20450;-69
2022/03/03 11:31:25;;;;;;;10.20;7.43;;;20.40;38.50;;;;;;4994862;28;20986;-67
2022/03/03 11:34:24;;;;;;;10.07;7.47;;;20.30;38.20;;;;;;4999848;28;20484;-69
2022/03/03 11:36:59;;;;;;;10.53;7.57;;;20.90;38.00;;;;;;4993365;28;20474;-69
2022/03/03 11:39:42;;;;;;;9.20;5.17;;;21.00;38.10;;;;;;4993876;28;20520;-69
2022/03/03 11:42:31;;;;;;;8.53;5.80;;;20.50;36.70;;;;;;5002222;28;21184;-67
2022/03/03 11:45:00;;;;;;;11.10;8.10;;;20.60;37.60;;;;;;5002265;28;20485;-69
2022/03/03 11:47:29;;;;;;;10.57;7.20;;;20.80;38.30;;;;;;4997644;28;20486;-69
2022/03/03 11:50:00;;;;;;;9.00;7.67;;;21.10;39.00;;;;;;4994086;28;20533;-67
2022/03/03 11:52:28;;;;;;;5.70;5.10;;;21.30;38.30;;;;;;4993106;28;20446;-68
2022/03/03 11:55:00;;;;;;;8.83;7.90;;;20.60;36.80;;;;;;4989908;28;20446;-69
2022/03/03 11:57:28;;;;;;;10.33;7.30;;;20.50;38.00;;;;;;4994175;28;20553;-69
2022/03/03 12:00:00;;;;;;;14.40;6.60;;;22.10;36.70;;;;;;4990845;28;20455;-68
2022/03/03 12:02:32;;;;;;;9.93;7.33;;;23.00;35.80;;;;;;4998410;28;20442;-69
2022/03/03 12:05:30;;;;;;;9.40;6.70;;;21.20;35.70;;;;;;4996616;28;21710;-69
2022/03/03 12:07:57;;;;;;;6.10;4.90;;;21.50;35.50;;;;;;4997729;28;20515;-69
2022/03/03 12:10:26;;;;;;;11.37;7.33;;;21.00;35.20;;;;;;4993709;28;20454;-68
2022/03/03 12:12:53;;;;;;;7.80;6.17;;;20.60;36.60;;;;;;5001804;28;20453;-68
2022/03/03 12:15:19;;;;;;;7.73;6.87;;;20.60;36.50;;;;;;4995624;28;20437;-69
2022/03/03 12:17:56;;;;;;;9.20;6.50;;;21.00;36.40;;;;;;4993693;28;20497;-68
2022/03/03 12:20:34;;;;;;;7.70;6.90;;;22.10;36.20;;;;;;4992395;28;20457;-68
2022/03/03 12:23:06;;;;;;;12.63;7.83;;;22.00;34.60;;;;;;4996856;28;20521;-69
2022/03/03 12:25:58;;;;;;;5.97;5.10;;;20.60;35.30;;;;;;4994591;28;20481;-69
2022/03/03 12:28:27;;;;;;;7.07;5.57;;;21.40;35.00;;;;;;4994297;28;20454;-68
2022/03/03 12:30:55;;;;;;;7.60;6.00;;;21.70;34.60;;;;;;5000386;28;20461;-67
2022/03/03 12:33:25;;;;;;;10.63;7.27;;;21.70;34.60;;;;;;5005070;28;20478;-69
2022/03/03 12:35:58;;;;;;;8.43;6.47;;;22.70;34.10;;;;;;5004232;28;20540;-68
2022/03/03 12:38:25;;;;;;;8.20;6.10;;;22.80;34.00;;;;;;4994607;28;20873;-68
2022/03/03 12:40:52;;;;;;;8.53;5.53;;;23.60;34.20;;;;;;4999398;28;20460;-68
2022/03/03 12:43:21;;;;;;;5.90;2.50;;;23.00;33.00;;;;;;4995472;28;20442;-68
2022/03/03 12:45:49;;;;;;;8.80;4.77;;;21.60;32.90;;;;;;4996546;28;20503;-69
2022/03/03 12:48:27;;;;;;;6.83;6.13;;;21.10;33.80;;;;;;4989880;28;20504;-70
2022/03/03 12:50:59;;;;;;;6.93;5.10;;;21.80;34.10;;;;;;4993742;28;20844;-69
2022/03/03 12:53:34;;;;;;;9.37;5.37;;;22.30;33.20;;;;;;4999777;28;20519;-69
2022/03/03 12:56:01;;;;;;;13.23;8.27;;;21.40;32.70;;;;;;4997588;28;20486;-69
2022/03/03 12:58:32;;;;;;;8.13;7.07;;;21.60;33.80;;;;;;4995347;28;20465;-69